Time;durP1;ratioP1;P1;durP2;ratioP2;P2;SDS_P1;SDS_P2;PMS_P1;PMS_P2;Temp;Humidity;BMP_temperature;BMP_pressure;BME280_temperature;BME280_humidity;BME280_pressure;Samples;Min_cycle;Max_cycle;Signal;HPM_P1;HPM_P2
2023/06/08 00:01:54;;;;;;;20.88;9.02;;;11.70;99.90;;;;;;5049216;28;20098;-62
2023/06/08 00:04:22;;;;;;;23.17;8.95;;;11.70;99.90;;;;;;5049600;28;20068;-62
2023/06/08 00:06:49;;;;;;;16.75;8.57;;;11.70;99.90;;;;;;5044904;28;20431;-62
2023/06/08 00:09:16;;;;;;;27.92;9.60;;;11.70;99.90;;;;;;5063686;28;20033;-61
2023/06/08 00:11:41;;;;;;;26.95;9.73;;;11.70;99.90;;;;;;5046284;28;20047;-62
2023/06/08 00:14:07;;;;;;;28.15;8.98;;;11.70;99.90;;;;;;5046957;28;20033;-61
2023/06/08 00:16:34;;;;;;;22.98;10.18;;;11.80;99.90;;;;;;5047634;28;20373;-62
2023/06/08 00:19:01;;;;;;;28.08;9.55;;;11.80;99.90;;;;;;5039631;28;20079;-62
2023/06/08 00:21:29;;;;;;;27.30;10.10;;;11.80;99.90;;;;;;5044892;28;20052;-61
2023/06/08 00:23:55;;;;;;;23.73;10.25;;;11.80;99.90;;;;;;5053991;28;20040;-62
2023/06/08 00:26:21;;;;;;;22.42;9.55;;;11.80;99.90;;;;;;5066514;28;20473;-63
2023/06/08 00:28:48;;;;;;;24.83;10.25;;;11.80;99.90;;;;;;5052298;28;20535;-62
2023/06/08 00:31:15;;;;;;;28.00;11.48;;;11.80;99.90;;;;;;5062679;28;20041;-62
2023/06/08 00:33:41;;;;;;;29.48;11.25;;;11.80;99.90;;;;;;5036807;28;20076;-61
2023/06/08 00:36:06;;;;;;;28.55;10.35;;;11.80;99.90;;;;;;5046618;28;20386;-63
2023/06/08 00:38:34;;;;;;;30.88;10.35;;;11.80;99.90;;;;;;5045935;28;20666;-62
2023/06/08 00:41:00;;;;;;;19.73;9.73;;;11.80;99.90;;;;;;5047069;28;20088;-63
2023/06/08 00:43:26;;;;;;;31.27;10.10;;;11.80;99.90;;;;;;5053148;28;20047;-62
2023/06/08 00:45:55;;;;;;;27.13;9.90;;;11.80;99.90;;;;;;5065998;28;20056;-62
2023/06/08 00:48:21;;;;;;;26.52;10.38;;;11.80;99.90;;;;;;5046900;28;20048;-61
2023/06/08 00:50:48;;;;;;;26.48;10.32;;;11.80;99.90;;;;;;5045048;28;20090;-61
2023/06/08 00:53:14;;;;;;;24.65;10.05;;;11.80;99.90;;;;;;5062234;28;20078;-61
2023/06/08 00:55:43;;;;;;;28.00;10.15;;;11.80;99.90;;;;;;5062841;28;20063;-61
2023/06/08 00:58:13;;;;;;;26.10;11.18;;;11.80;99.90;;;;;;5065749;28;20125;-63
2023/06/08 01:00:40;;;;;;;28.90;11.07;;;11.80;99.90;;;;;;5066017;28;20467;-62
2023/06/08 01:03:06;;;;;;;30.35;11.70;;;11.80;99.90;;;;;;5045201;28;20123;-63
2023/06/08 01:05:32;;;;;;;31.58;11.43;;;11.80;99.90;;;;;;5044704;28;20037;-63
2023/06/08 01:08:13;;;;;;;31.52;11.88;;;11.70;99.90;;;;;;5044611;28;20040;-62
2023/06/08 01:11:11;;;;;;;26.27;12.35;;;11.70;99.90;;;;;;5062069;28;20037;-62
2023/06/08 01:13:48;;;;;;;24.38;11.63;;;11.70;99.90;;;;;;5047378;28;20063;-61
2023/06/08 01:16:17;;;;;;;29.85;11.55;;;11.70;99.90;;;;;;5045289;28;20037;-61
2023/06/08 01:18:44;;;;;;;34.25;13.15;;;11.70;99.90;;;;;;5045188;28;20526;-62
2023/06/08 01:21:42;;;;;;;30.83;11.30;;;11.70;99.90;;;;;;5060699;28;20454;-63
2023/06/08 01:24:14;;;;;;;25.88;11.00;;;11.70;99.90;;;;;;5053609;28;20578;-63
2023/06/08 01:26:49;;;;;;;26.42;10.43;;;11.70;99.90;;;;;;5065356;28;20411;-62
2023/06/08 01:29:17;;;;;;;25.50;10.43;;;11.70;99.90;;;;;;5044633;28;20056;-63
2023/06/08 01:31:42;;;;;;;23.90;10.30;;;11.70;99.90;;;;;;5044536;28;20049;-62
2023/06/08 01:34:10;;;;;;;27.17;9.25;;;11.70;99.90;;;;;;5039390;28;20103;-60
2023/06/08 01:36:51;;;;;;;29.23;9.45;;;11.70;99.90;;;;;;5043554;28;20049;-63
2023/06/08 01:39:38;;;;;;;23.38;8.88;;;11.70;99.90;;;;;;5045145;28;20045;-66
2023/06/08 01:42:07;;;;;;;20.77;9.25;;;11.70;99.90;;;;;;5044617;28;20056;-62
2023/06/08 01:44:40;;;;;;;25.73;10.23;;;11.70;99.90;;;;;;5045354;28;20044;-61
2023/06/08 01:47:07;;;;;;;31.23;11.15;;;11.70;99.90;;;;;;5046109;28;20510;-61
2023/06/08 01:49:33;;;;;;;25.40;11.35;;;11.60;99.90;;;;;;5045115;28;20080;-63
2023/06/08 01:51:59;;;;;;;24.83;11.40;;;11.60;99.90;;;;;;5058999;28;20041;-62
2023/06/08 01:54:25;;;;;;;27.20;10.30;;;11.70;99.90;;;;;;5061340;28;20043;-63
2023/06/08 01:56:50;;;;;;;26.40;11.07;;;11.70;99.90;;;;;;5044214;28;20048;-61
2023/06/08 01:59:16;;;;;;;28.58;11.00;;;11.70;99.90;;;;;;5046627;28;20163;-62
2023/06/08 02:01:42;;;;;;;23.77;10.45;;;11.70;99.90;;;;;;5061578;28;20481;-62
2023/06/08 02:04:08;;;;;;;27.73;10.65;;;11.60;99.90;;;;;;5051767;28;20052;-63
2023/06/08 02:06:35;;;;;;;35.10;12.00;;;11.70;99.90;;;;;;5043274;28;20138;-63
2023/06/08 02:09:00;;;;;;;28.40;12.30;;;11.70;99.90;;;;;;5044110;28;20442;-61
2023/06/08 02:11:26;;;;;;;33.42;12.45;;;11.60;99.90;;;;;;5045415;28;20128;-62
2023/06/08 02:13:52;;;;;;;35.00;13.05;;;11.60;99.90;;;;;;5061199;28;20044;-63
2023/06/08 02:16:20;;;;;;;37.63;14.48;;;11.60;99.90;;;;;;5044246;28;20075;-64
2023/06/08 02:18:46;;;;;;;35.35;14.02;;;11.60;99.90;;;;;;5043954;28;20123;-62
2023/06/08 02:21:12;;;;;;;35.65;13.93;;;11.50;99.90;;;;;;5042675;28;20131;-63
2023/06/08 02:23:38;;;;;;;37.35;13.65;;;11.50;99.90;;;;;;5044969;28;20033;-63
2023/06/08 02:26:06;;;;;;;30.25;14.63;;;11.50;99.90;;;;;;5043958;28;20037;-63
2023/06/08 02:28:32;;;;;;;37.53;15.02;;;11.50;99.90;;;;;;5044249;28;20046;-62
2023/06/08 02:30:58;;;;;;;32.10;15.68;;;11.50;99.90;;;;;;5027304;28;20036;-62
2023/06/08 02:33:24;;;;;;;30.05;14.60;;;11.50;99.90;;;;;;5043953;28;20099;-64
2023/06/08 02:35:50;;;;;;;30.50;14.48;;;11.50;99.90;;;;;;5044185;28;20041;-62
2023/06/08 02:38:16;;;;;;;32.40;15.55;;;11.50;99.90;;;;;;5059771;28;20060;-63
2023/06/08 02:40:42;;;;;;;32.25;15.43;;;11.50;99.90;;;;;;5043922;28;20055;-62
2023/06/08 02:43:08;;;;;;;33.40;15.02;;;11.50;99.90;;;;;;5044085;28;20423;-62
2023/06/08 02:45:34;;;;;;;30.60;15.00;;;11.50;99.90;;;;;;5045120;28;20516;-62
2023/06/08 02:48:00;;;;;;;35.30;15.95;;;11.50;99.90;;;;;;5059403;28;20041;-62
2023/06/08 02:50:26;;;;;;;33.15;15.68;;;11.50;99.90;;;;;;5058466;28;20425;-66
2023/06/08 02:52:52;;;;;;;36.92;15.23;;;11.40;99.90;;;;;;5042638;28;20427;-64
2023/06/08 02:55:18;;;;;;;33.80;16.30;;;11.40;99.90;;;;;;5043042;28;20114;-63
2023/06/08 02:57:44;;;;;;;36.33;15.23;;;11.40;99.90;;;;;;5045261;28;20144;-66
2023/06/08 03:00:13;;;;;;;38.70;17.55;;;11.40;99.90;;;;;;5059916;28;20053;-65
2023/06/08 03:02:39;;;;;;;36.17;15.77;;;11.30;99.90;;;;;;5042703;28;20049;-64
2023/06/08 03:05:05;;;;;;;36.45;16.20;;;11.30;99.90;;;;;;5043391;28;20044;-63
2023/06/08 03:07:36;;;;;;;32.67;16.50;;;11.30;99.90;;;;;;5041079;28;20490;-63
2023/06/08 03:10:06;;;;;;;38.60;15.05;;;11.20;99.90;;;;;;5043966;28;20240;-64
2023/06/08 03:12:31;;;;;;;37.90;15.95;;;11.20;99.90;;;;;;5051413;28;20037;-67
2023/06/08 03:14:58;;;;;;;34.17;16.27;;;11.20;99.90;;;;;;5043944;28;20033;-63
2023/06/08 03:17:24;;;;;;;34.72;15.55;;;11.20;99.90;;;;;;5043625;28;20507;-62
2023/06/08 03:19:54;;;;;;;33.25;16.30;;;11.20;99.90;;;;;;5043303;28;20098;-62
2023/06/08 03:22:20;;;;;;;38.90;17.67;;;11.20;99.90;;;;;;5041092;28;20400;-62
2023/06/08 03:24:49;;;;;;;35.70;17.00;;;11.20;99.90;;;;;;5043451;28;20128;-63
2023/06/08 03:27:16;;;;;;;33.85;15.32;;;11.20;99.90;;;;;;5059462;28;20458;-62
2023/06/08 03:29:42;;;;;;;36.70;16.27;;;11.20;99.90;;;;;;5043446;28;20080;-62
2023/06/08 03:32:07;;;;;;;32.95;15.60;;;11.20;99.90;;;;;;5049855;28;20104;-63
2023/06/08 03:34:34;;;;;;;35.08;15.38;;;11.20;99.90;;;;;;5043471;28;20462;-63
2023/06/08 03:37:00;;;;;;;34.35;14.90;;;11.20;99.90;;;;;;5041124;28;20255;-62
2023/06/08 03:39:25;;;;;;;33.47;15.23;;;11.10;99.90;;;;;;5044716;28;20120;-62
2023/06/08 03:41:51;;;;;;;34.20;14.93;;;11.10;99.90;;;;;;5042789;28;20045;-62
2023/06/08 03:44:17;;;;;;;39.90;14.18;;;11.20;99.90;;;;;;5043902;28;20120;-62
2023/06/08 03:46:43;;;;;;;31.90;14.82;;;11.20;99.90;;;;;;5026188;28;20037;-60
2023/06/08 03:49:09;;;;;;;23.63;12.73;;;11.20;99.90;;;;;;5027072;28;20045;-62
2023/06/08 03:51:35;;;;;;;33.88;15.52;;;11.10;99.90;;;;;;5042903;28;20124;-63
2023/06/08 03:54:01;;;;;;;41.17;14.38;;;11.20;99.90;;;;;;5042869;28;20524;-63
2023/06/08 03:56:27;;;;;;;31.00;13.65;;;11.10;99.90;;;;;;5043030;28;20045;-62
2023/06/08 03:58:53;;;;;;;28.80;14.57;;;11.20;99.90;;;;;;5043245;28;20088;-63
2023/06/08 04:01:22;;;;;;;26.75;14.40;;;11.20;99.90;;;;;;5042396;28;20051;-61
2023/06/08 04:03:47;;;;;;;30.42;15.07;;;11.20;99.90;;;;;;5042791;28;20041;-62
2023/06/08 04:06:16;;;;;;;26.45;13.57;;;11.20;99.90;;;;;;5041920;28;20547;-64
2023/06/08 04:08:44;;;;;;;33.38;13.65;;;11.20;99.90;;;;;;5026024;28;20068;-62
2023/06/08 04:11:10;;;;;;;31.60;14.07;;;11.20;99.90;;;;;;5028191;28;20044;-62
2023/06/08 04:13:36;;;;;;;29.15;13.98;;;11.20;99.90;;;;;;5043792;28;20051;-62
2023/06/08 04:16:07;;;;;;;28.77;14.30;;;11.20;99.90;;;;;;5043081;28;20067;-62
2023/06/08 04:18:33;;;;;;;32.22;15.52;;;11.20;99.90;;;;;;5050406;28;20036;-64
2023/06/08 04:20:58;;;;;;;32.65;16.20;;;11.20;99.90;;;;;;5045005;28;20049;-64
2023/06/08 04:23:24;;;;;;;33.22;15.80;;;11.20;99.90;;;;;;5048439;28;20044;-62
2023/06/08 04:25:49;;;;;;;37.33;16.20;;;11.20;99.90;;;;;;5066421;28;20102;-62
2023/06/08 04:28:15;;;;;;;29.92;15.30;;;11.20;99.90;;;;;;5055587;28;20041;-64
2023/06/08 04:30:41;;;;;;;37.40;15.32;;;11.20;99.90;;;;;;5045936;28;20417;-61
2023/06/08 04:33:07;;;;;;;31.60;15.90;;;11.20;99.90;;;;;;5045943;28;20507;-63
2023/06/08 04:35:32;;;;;;;33.65;15.55;;;11.30;99.90;;;;;;5045451;28;20049;-62
2023/06/08 04:37:58;;;;;;;35.58;16.67;;;11.20;99.90;;;;;;5045226;28;20121;-64
2023/06/08 04:40:25;;;;;;;35.85;16.58;;;11.30;99.90;;;;;;5045947;28;20037;-65
2023/06/08 04:42:51;;;;;;;264.48;30.15;;;11.20;99.90;;;;;;5046010;28;20044;-62
2023/06/08 04:45:18;;;;;;;30.58;15.00;;;11.30;99.90;;;;;;5046528;28;20051;-62
2023/06/08 04:47:47;;;;;;;30.33;14.65;;;11.30;99.90;;;;;;5045925;28;20050;-60
2023/06/08 04:50:14;;;;;;;31.73;15.88;;;11.30;99.90;;;;;;5045768;28;20076;-65
2023/06/08 04:52:45;;;;;;;32.83;15.68;;;11.30;99.90;;;;;;5044264;28;20049;-63
2023/06/08 04:55:13;;;;;;;30.60;14.40;;;11.30;99.90;;;;;;5046883;28;20041;-62
2023/06/08 04:57:42;;;;;;;36.63;15.55;;;11.30;99.90;;;;;;5046147;28;20045;-62
2023/06/08 05:00:09;;;;;;;31.15;14.40;;;11.40;99.90;;;;;;5062599;28;20041;-62
2023/06/08 05:02:37;;;;;;;36.60;15.15;;;11.40;99.90;;;;;;5045356;28;20653;-61
2023/06/08 05:05:03;;;;;;;34.45;15.30;;;11.40;99.90;;;;;;5046209;28;20044;-62
2023/06/08 05:07:29;;;;;;;38.78;15.48;;;11.50;99.90;;;;;;5062013;28;20037;-63
2023/06/08 05:09:56;;;;;;;28.38;12.43;;;11.50;99.90;;;;;;5065412;28;20082;-62
2023/06/08 05:12:22;;;;;;;30.60;11.80;;;11.50;99.90;;;;;;5049625;28;20448;-62
2023/06/08 05:14:48;;;;;;;33.13;11.10;;;11.50;99.90;;;;;;5045817;28;20040;-63
2023/06/08 05:17:13;;;;;;;28.55;10.13;;;11.60;99.90;;;;;;5046516;28;20362;-63
2023/06/08 05:19:39;;;;;;;33.78;13.20;;;11.70;99.90;;;;;;5045743;28;20072;-63
2023/06/08 05:22:05;;;;;;;29.83;14.05;;;11.70;99.90;;;;;;5042490;28;20189;-63
2023/06/08 05:24:30;;;;;;;42.90;13.88;;;11.70;99.90;;;;;;5066653;28;20030;-62
2023/06/08 05:26:56;;;;;;;28.27;13.10;;;11.70;99.90;;;;;;5065096;28;20036;-63
2023/06/08 05:29:22;;;;;;;27.52;10.65;;;11.70;99.90;;;;;;5033627;28;20048;-63
2023/06/08 05:31:49;;;;;;;24.13;9.63;;;11.80;99.90;;;;;;5071736;28;20402;-63
2023/06/08 05:34:15;;;;;;;19.38;9.30;;;11.90;99.90;;;;;;5064528;28;20392;-62
2023/06/08 05:36:41;;;;;;;24.58;9.68;;;11.90;99.90;;;;;;5043577;28;20051;-62
2023/06/08 05:39:06;;;;;;;32.08;10.50;;;12.00;99.90;;;;;;5048424;28;20390;-63
2023/06/08 05:41:32;;;;;;;22.42;9.82;;;12.10;99.90;;;;;;5053063;28;20058;-65
2023/06/08 05:43:58;;;;;;;27.25;10.65;;;12.10;99.90;;;;;;5064329;28;20513;-61
2023/06/08 05:46:24;;;;;;;26.42;9.38;;;12.10;99.90;;;;;;5070106;28;20036;-62
2023/06/08 05:48:49;;;;;;;26.65;9.35;;;12.10;99.90;;;;;;5045306;28;20036;-63
2023/06/08 05:51:15;;;;;;;22.40;9.93;;;12.20;99.90;;;;;;5062102;28;20048;-62
2023/06/08 05:53:41;;;;;;;22.58;9.27;;;12.20;99.90;;;;;;5064235;28;20044;-63
2023/06/08 05:56:06;;;;;;;30.13;9.40;;;12.30;99.90;;;;;;5047578;28;20056;-62
2023/06/08 05:58:32;;;;;;;22.05;9.23;;;12.40;99.90;;;;;;5028812;28;20475;-63
2023/06/08 06:00:59;;;;;;;24.38;9.20;;;12.60;99.90;;;;;;5061628;28;20480;-63
2023/06/08 06:03:25;;;;;;;29.38;9.27;;;12.60;99.90;;;;;;5062091;28;20442;-62
2023/06/08 06:05:50;;;;;;;20.77;8.50;;;12.90;99.90;;;;;;5060646;28;20036;-62
2023/06/08 06:08:16;;;;;;;19.63;7.95;;;13.20;99.90;;;;;;5061705;28;20042;-63
2023/06/08 06:10:42;;;;;;;19.42;7.72;;;13.30;99.90;;;;;;5078101;28;20031;-63
2023/06/08 06:13:07;;;;;;;25.98;8.82;;;13.30;99.90;;;;;;5060283;28;20040;-62
2023/06/08 06:15:33;;;;;;;25.30;7.97;;;13.30;99.90;;;;;;5064525;28;20048;-63
2023/06/08 06:17:59;;;;;;;21.92;8.05;;;13.20;99.90;;;;;;5042551;28;20140;-63
2023/06/08 06:20:29;;;;;;;21.58;6.95;;;13.30;99.90;;;;;;5044941;28;20451;-64
2023/06/08 06:22:55;;;;;;;15.57;5.95;;;13.40;99.90;;;;;;5063194;28;20074;-66
2023/06/08 06:25:23;;;;;;;17.52;6.55;;;13.60;99.90;;;;;;5045253;28;20033;-65
2023/06/08 06:27:49;;;;;;;20.35;7.18;;;13.60;99.90;;;;;;5044484;28;20175;-63
2023/06/08 06:30:15;;;;;;;25.58;7.60;;;13.60;99.90;;;;;;5044491;28;20634;-66
2023/06/08 06:32:40;;;;;;;24.48;7.13;;;13.50;99.90;;;;;;5043656;28;20045;-63
2023/06/08 06:35:06;;;;;;;20.98;6.82;;;13.50;99.90;;;;;;5044310;28;20041;-66
2023/06/08 06:37:35;;;;;;;19.77;7.18;;;13.50;99.90;;;;;;5041977;28;20048;-67
2023/06/08 06:40:04;;;;;;;17.85;6.68;;;13.50;99.90;;;;;;5044573;28;20044;-66
2023/06/08 06:42:30;;;;;;;20.52;7.25;;;13.70;99.90;;;;;;5043183;28;20048;-64
2023/06/08 06:44:56;;;;;;;21.15;6.25;;;13.80;99.90;;;;;;5044694;28;20045;-65
2023/06/08 06:47:22;;;;;;;19.70;7.15;;;14.00;99.90;;;;;;5044055;28;20055;-65
2023/06/08 06:49:48;;;;;;;23.15;6.70;;;14.10;99.90;;;;;;5044552;28;20036;-63
2023/06/08 06:52:13;;;;;;;17.23;6.75;;;14.30;99.90;;;;;;5041835;28;20048;-64
2023/06/08 06:54:39;;;;;;;18.02;6.53;;;14.40;99.90;;;;;;5044278;28;20054;-62
2023/06/08 06:57:05;;;;;;;16.65;6.13;;;14.70;99.90;;;;;;5043855;28;20515;-67
2023/06/08 06:59:30;;;;;;;21.27;6.88;;;14.70;99.90;;;;;;5044010;28;20060;-65
2023/06/08 07:01:56;;;;;;;16.92;6.28;;;14.70;99.90;;;;;;5043300;28;20044;-63
2023/06/08 07:04:22;;;;;;;21.58;5.88;;;14.70;99.90;;;;;;5044141;28;20051;-68
2023/06/08 07:06:50;;;;;;;17.48;5.75;;;14.70;99.90;;;;;;5042008;28;20045;-64
2023/06/08 07:09:16;;;;;;;19.50;5.72;;;14.80;99.90;;;;;;5043881;28;20033;-64
2023/06/08 07:11:42;;;;;;;19.70;6.05;;;14.80;99.90;;;;;;5043511;28;20139;-64
2023/06/08 07:14:07;;;;;;;18.05;6.10;;;14.90;99.90;;;;;;5043949;28;20076;-64
2023/06/08 07:16:33;;;;;;;18.48;5.80;;;14.90;99.90;;;;;;5043243;28;20279;-65
2023/06/08 07:18:58;;;;;;;19.40;6.68;;;15.00;99.90;;;;;;5043683;28;20373;-64
2023/06/08 07:21:24;;;;;;;19.08;5.93;;;15.10;99.90;;;;;;5042269;28;20553;-65
2023/06/08 07:23:50;;;;;;;25.70;5.93;;;15.20;99.90;;;;;;5042551;28;20400;-62
2023/06/08 07:26:16;;;;;;;23.55;6.40;;;15.20;99.90;;;;;;5043248;28;20041;-64
2023/06/08 07:28:42;;;;;;;17.15;6.05;;;15.30;99.90;;;;;;5043599;28;20049;-62
2023/06/08 07:31:07;;;;;;;20.77;5.95;;;15.30;99.90;;;;;;5042820;28;20044;-71
2023/06/08 07:33:33;;;;;;;17.25;5.35;;;15.40;99.90;;;;;;5043300;28;20123;-65
2023/06/08 07:35:59;;;;;;;19.92;6.22;;;15.40;99.90;;;;;;5042450;28;20041;-64
2023/06/08 07:38:24;;;;;;;25.58;6.30;;;15.40;99.90;;;;;;5042990;28;20052;-67
2023/06/08 07:40:50;;;;;;;18.98;5.07;;;15.30;99.90;;;;;;5043687;28;20037;-64
2023/06/08 07:43:15;;;;;;;22.17;5.50;;;15.40;99.90;;;;;;5043888;28;20059;-66
2023/06/08 07:45:41;;;;;;;15.98;6.45;;;15.50;99.90;;;;;;5043758;28;20099;-65
2023/06/08 07:48:07;;;;;;;16.65;5.22;;;15.60;99.90;;;;;;5045692;28;20483;-66
2023/06/08 07:50:33;;;;;;;24.58;6.00;;;15.60;99.90;;;;;;5041205;28;20056;-63
2023/06/08 07:52:58;;;;;;;18.00;5.68;;;15.80;99.90;;;;;;5041994;28;20043;-65
2023/06/08 07:55:24;;;;;;;23.65;5.28;;;15.70;99.90;;;;;;5046977;28;20045;-63
2023/06/08 07:57:50;;;;;;;18.00;5.88;;;15.90;99.90;;;;;;5047443;28;20060;-62
2023/06/08 08:00:16;;;;;;;21.20;5.85;;;15.90;99.90;;;;;;5046957;28;20057;-65
2023/06/08 08:02:43;;;;;;;24.40;6.38;;;16.10;99.90;;;;;;5046684;28;20131;-66
2023/06/08 08:05:08;;;;;;;17.88;5.53;;;16.00;99.90;;;;;;5047181;28;20121;-64
2023/06/08 08:07:35;;;;;;;17.15;6.13;;;16.10;99.90;;;;;;5044746;28;20503;-66
2023/06/08 08:10:01;;;;;;;19.77;6.15;;;16.10;99.90;;;;;;5046839;28;20036;-64
2023/06/08 08:12:27;;;;;;;16.70;5.93;;;16.00;99.90;;;;;;5046869;28;20045;-62
2023/06/08 08:14:52;;;;;;;19.55;5.65;;;15.90;99.90;;;;;;5047364;28;20102;-64
2023/06/08 08:17:18;;;;;;;22.35;5.53;;;16.00;99.90;;;;;;5046314;28;20530;-66
2023/06/08 08:19:44;;;;;;;16.35;5.40;;;16.20;99.90;;;;;;5039058;28;20549;-63
2023/06/08 08:22:09;;;;;;;15.45;5.63;;;16.20;99.90;;;;;;5044558;28;20330;-67
2023/06/08 08:24:36;;;;;;;16.88;5.97;;;16.20;99.90;;;;;;5051364;28;20378;-62
2023/06/08 08:27:02;;;;;;;21.95;6.15;;;16.30;99.90;;;;;;5046698;28;20045;-64
2023/06/08 08:29:27;;;;;;;18.77;5.55;;;16.40;99.90;;;;;;5047168;28;20025;-62
2023/06/08 08:31:53;;;;;;;18.63;5.78;;;16.20;99.90;;;;;;5045867;28;20063;-63
2023/06/08 08:34:19;;;;;;;16.15;5.90;;;16.30;99.90;;;;;;5046240;28;20037;-61
2023/06/08 08:36:44;;;;;;;19.23;6.18;;;16.30;99.90;;;;;;5044987;28;20041;-65
2023/06/08 08:39:11;;;;;;;21.33;6.40;;;16.40;99.90;;;;;;5046399;28;20393;-62
2023/06/08 08:41:40;;;;;;;16.75;6.03;;;16.50;99.90;;;;;;5045880;28;20532;-66
2023/06/08 08:44:08;;;;;;;17.08;5.75;;;16.50;99.90;;;;;;5029974;28;20143;-65
2023/06/08 08:46:37;;;;;;;17.45;6.13;;;16.40;99.90;;;;;;5046254;28;20120;-65
2023/06/08 08:49:15;;;;;;;20.73;5.82;;;16.40;99.90;;;;;;5046196;28;20029;-63
2023/06/08 08:51:47;;;;;;;19.05;5.88;;;16.40;99.90;;;;;;5044801;28;20044;-66
2023/06/08 08:54:15;;;;;;;22.27;6.50;;;16.50;99.90;;;;;;5046234;28;20449;-67
2023/06/08 08:56:42;;;;;;;17.92;5.68;;;16.50;99.90;;;;;;5046241;28;20625;-66
2023/06/08 08:59:08;;;;;;;16.90;5.55;;;16.60;99.90;;;;;;5046152;28;20080;-66
2023/06/08 09:01:34;;;;;;;15.57;6.28;;;16.70;99.90;;;;;;5045248;28;20088;-64
2023/06/08 09:04:01;;;;;;;21.95;5.97;;;16.80;99.90;;;;;;5045992;28;20134;-64
2023/06/08 09:06:28;;;;;;;17.75;5.15;;;16.80;99.90;;;;;;5044147;28;20075;-64
2023/06/08 09:08:54;;;;;;;15.20;5.70;;;16.90;99.90;;;;;;5045377;28;20041;-65
2023/06/08 09:11:21;;;;;;;24.45;6.50;;;17.00;99.90;;;;;;5045873;28;20091;-64
2023/06/08 09:13:47;;;;;;;15.52;5.70;;;17.10;99.90;;;;;;5045806;28;20615;-65
2023/06/08 09:16:19;;;;;;;17.77;5.88;;;17.20;99.90;;;;;;5045731;28;20566;-65
2023/06/08 09:18:46;;;;;;;17.10;5.60;;;17.20;99.90;;;;;;5045867;28;20119;-63
2023/06/08 09:21:40;;;;;;;16.45;5.53;;;17.30;99.90;;;;;;5044864;28;20037;-67
2023/06/08 09:24:17;;;;;;;19.50;5.82;;;17.30;99.90;;;;;;5052731;28;20439;-63
2023/06/08 09:26:58;;;;;;;18.95;6.20;;;17.30;99.90;;;;;;5043041;28;20032;-64
2023/06/08 09:29:39;;;;;;;14.63;5.13;;;17.40;99.90;;;;;;5045893;28;20445;-65
2023/06/08 09:32:12;;;;;;;18.33;5.50;;;17.50;99.90;;;;;;5044946;28;20253;-64
2023/06/08 09:35:01;;;;;;;18.48;5.38;;;17.50;99.90;;;;;;5045391;28;20033;-65
2023/06/08 09:37:29;;;;;;;21.05;5.70;;;17.60;99.90;;;;;;5043513;28;20044;-64
2023/06/08 09:39:55;;;;;;;18.63;6.10;;;17.60;99.90;;;;;;5045176;28;20446;-67
2023/06/08 09:42:21;;;;;;;14.10;5.10;;;17.60;99.90;;;;;;5045368;28;20059;-64
2023/06/08 09:44:46;;;;;;;17.55;5.45;;;17.60;99.90;;;;;;5045534;28;20063;-66
2023/06/08 09:47:22;;;;;;;17.33;5.53;;;17.50;99.90;;;;;;5045088;28;20052;-68
2023/06/08 09:49:50;;;;;;;16.48;6.00;;;17.50;99.90;;;;;;5044626;28;20038;-66
2023/06/08 09:52:19;;;;;;;18.30;5.90;;;17.60;99.90;;;;;;5043262;28;20585;-66
2023/06/08 09:54:46;;;;;;;18.67;5.60;;;17.70;99.90;;;;;;5029141;28;20041;-68
2023/06/08 09:57:14;;;;;;;18.30;5.82;;;17.80;99.90;;;;;;5028244;28;20040;-66
2023/06/08 09:59:46;;;;;;;17.38;5.15;;;18.00;99.90;;;;;;5044746;28;20061;-64
2023/06/08 10:02:29;;;;;;;17.90;5.63;;;18.10;99.90;;;;;;5044538;28;20064;-66
2023/06/08 10:04:56;;;;;;;19.70;5.45;;;18.10;99.90;;;;;;5028918;28;20048;-66
2023/06/08 10:07:29;;;;;;;17.58;4.93;;;18.10;99.90;;;;;;5042819;28;20079;-65
2023/06/08 10:10:09;;;;;;;14.50;4.53;;;18.20;99.90;;;;;;5044533;28;20090;-68
2023/06/08 10:12:35;;;;;;;15.73;5.05;;;18.20;99.90;;;;;;5044869;28;20103;-65
2023/06/08 10:15:02;;;;;;;12.30;4.10;;;18.20;99.90;;;;;;5044781;28;20045;-65
2023/06/08 10:17:29;;;;;;;13.00;5.07;;;18.30;99.90;;;;;;5044105;28;20045;-64
2023/06/08 10:19:56;;;;;;;15.20;5.00;;;18.30;99.90;;;;;;5044446;28;20041;-64
2023/06/08 10:22:23;;;;;;;16.60;4.93;;;18.20;99.90;;;;;;5026583;28;20045;-65
2023/06/08 10:24:49;;;;;;;13.48;4.97;;;18.30;99.90;;;;;;5060582;28;20047;-64
2023/06/08 10:27:33;;;;;;;14.80;5.10;;;18.30;99.90;;;;;;5048029;28;20036;-65
2023/06/08 10:30:03;;;;;;;14.88;5.05;;;18.30;99.90;;;;;;5054182;28;20549;-65
2023/06/08 10:32:36;;;;;;;18.23;5.03;;;18.40;99.90;;;;;;5027435;28;20500;-64
2023/06/08 10:35:07;;;;;;;18.25;5.65;;;18.50;99.90;;;;;;5057117;28;20103;-65
2023/06/08 10:37:34;;;;;;;14.80;5.32;;;18.60;99.90;;;;;;5062497;28;20045;-66
2023/06/08 10:40:09;;;;;;;15.82;5.13;;;18.50;99.90;;;;;;5054447;28;20072;-64
2023/06/08 10:42:35;;;;;;;17.58;5.35;;;18.50;99.90;;;;;;5044087;28;20383;-64
2023/06/08 10:45:03;;;;;;;20.67;5.32;;;18.70;99.90;;;;;;5033628;28;20122;-65
2023/06/08 10:47:31;;;;;;;16.65;4.95;;;18.80;99.90;;;;;;5027152;28;20048;-68
2023/06/08 10:50:05;;;;;;;17.75;4.85;;;18.80;99.90;;;;;;5044086;28;20045;-66
2023/06/08 10:52:45;;;;;;;16.65;5.80;;;18.80;99.90;;;;;;5042238;28;20234;-63
2023/06/08 10:55:12;;;;;;;16.50;5.47;;;18.90;99.90;;;;;;5044241;28;20095;-66
2023/06/08 10:57:46;;;;;;;15.55;4.75;;;18.80;99.90;;;;;;5044134;28;20049;-64
2023/06/08 11:00:27;;;;;;;18.23;5.30;;;18.80;99.90;;;;;;5044053;28;20133;-64
2023/06/08 11:02:58;;;;;;;17.95;5.80;;;18.90;99.90;;;;;;5044786;28;20522;-63
2023/06/08 11:05:28;;;;;;;16.08;4.80;;;19.00;99.90;;;;;;5043750;28;20114;-65
2023/06/08 11:07:54;;;;;;;16.55;5.28;;;19.10;99.90;;;;;;5043023;28;20439;-66
2023/06/08 11:10:23;;;;;;;21.48;5.45;;;19.00;99.90;;;;;;5043601;28;20033;-65
2023/06/08 11:12:49;;;;;;;13.48;4.65;;;19.20;99.90;;;;;;5044380;28;20440;-67
2023/06/08 11:15:17;;;;;;;17.85;5.80;;;19.30;99.90;;;;;;5027509;28;20401;-64
2023/06/08 11:18:10;;;;;;;20.67;5.55;;;19.20;99.90;;;;;;5043782;28;20045;-66
2023/06/08 11:20:41;;;;;;;17.73;5.68;;;19.20;99.90;;;;;;5040508;28;20159;-67
2023/06/08 11:23:09;;;;;;;19.60;5.50;;;19.10;99.90;;;;;;5042746;28;20045;-64
2023/06/08 11:25:35;;;;;;;18.58;5.28;;;19.20;99.90;;;;;;5043948;28;20040;-69
2023/06/08 11:28:02;;;;;;;15.23;5.45;;;19.20;99.90;;;;;;5044319;28;20029;-64
2023/06/08 11:30:31;;;;;;;14.57;5.00;;;19.20;99.90;;;;;;5049802;28;20037;-67
2023/06/08 11:32:57;;;;;;;15.50;5.50;;;19.20;99.90;;;;;;5049521;28;20048;-65
2023/06/08 11:35:23;;;;;;;14.63;5.63;;;19.20;99.90;;;;;;5049114;28;20041;-66
2023/06/08 11:37:55;;;;;;;15.85;5.97;;;19.20;99.90;;;;;;5049161;28;20110;-62
2023/06/08 11:40:21;;;;;;;16.02;5.68;;;19.10;99.90;;;;;;5049984;28;20045;-61
2023/06/08 11:42:46;;;;;;;15.10;5.53;;;19.00;99.90;;;;;;5050093;28;20073;-65
2023/06/08 11:45:14;;;;;;;16.92;5.18;;;19.10;99.90;;;;;;5033862;28;20053;-69
2023/06/08 11:47:43;;;;;;;13.60;5.57;;;19.00;99.90;;;;;;5050161;28;20041;-64
2023/06/08 11:50:11;;;;;;;14.93;4.95;;;19.10;99.90;;;;;;5049727;28;20116;-64
2023/06/08 11:52:39;;;;;;;18.63;5.30;;;19.00;99.90;;;;;;5048136;28;20203;-64
2023/06/08 11:55:08;;;;;;;12.98;4.88;;;19.10;99.90;;;;;;5050415;28;20500;-64
2023/06/08 11:57:53;;;;;;;16.13;5.63;;;19.30;99.90;;;;;;5066717;28;20160;-62
2023/06/08 12:00:24;;;;;;;15.73;5.45;;;19.30;99.70;;;;;;5049252;28;20163;-63
2023/06/08 12:02:51;;;;;;;15.63;5.38;;;19.30;99.90;;;;;;5032800;28;20068;-64
2023/06/08 12:05:26;;;;;;;21.05;5.45;;;19.20;99.70;;;;;;5049806;28;20040;-66
2023/06/08 12:08:02;;;;;;;17.00;5.10;;;19.30;99.80;;;;;;5048788;28;20156;-64
2023/06/08 12:10:31;;;;;;;15.25;5.35;;;19.30;99.90;;;;;;5033002;28;20029;-67
2023/06/08 12:12:56;;;;;;;16.75;5.35;;;19.40;99.90;;;;;;5050246;28;20037;-66
2023/06/08 12:15:22;;;;;;;15.80;4.88;;;19.40;99.40;;;;;;5063837;28;20037;-64
2023/06/08 12:17:48;;;;;;;13.20;4.50;;;19.50;99.20;;;;;;5053343;28;20127;-67
2023/06/08 12:20:15;;;;;;;15.80;5.00;;;19.40;98.90;;;;;;5049906;28;20037;-65
2023/06/08 12:22:41;;;;;;;17.27;5.38;;;19.40;98.90;;;;;;5048793;28;20247;-64
2023/06/08 12:25:07;;;;;;;16.55;4.90;;;19.40;99.00;;;;;;5066505;28;20046;-66
2023/06/08 12:27:37;;;;;;;14.43;4.90;;;19.40;99.30;;;;;;5069758;28;20036;-70
2023/06/08 12:30:04;;;;;;;15.80;4.05;;;19.50;99.60;;;;;;5052682;28;20053;-65
2023/06/08 12:32:31;;;;;;;12.48;4.65;;;19.40;99.70;;;;;;5049122;28;20045;-66
2023/06/08 12:34:59;;;;;;;15.45;4.68;;;19.50;99.40;;;;;;5050011;28;20123;-65
2023/06/08 12:37:24;;;;;;;14.00;4.20;;;19.60;99.20;;;;;;5057793;28;20040;-66